createdAt,value
2022-11-05T00:00:49.346Z,5.90
2022-11-05T00:03:34.952Z,5.30
2022-11-05T00:06:20.522Z,6.40
2022-11-05T00:09:06.027Z,6.30
2022-11-05T00:11:51.662Z,5.20
2022-11-05T00:14:37.381Z,6.10
2022-11-05T00:17:06.622Z,5.20
2022-11-05T00:19:34.497Z,5.30
2022-11-05T00:22:19.902Z,5.80
2022-11-05T00:25:05.415Z,6.30
2022-11-05T00:27:34.409Z,5.30
2022-11-05T00:30:02.298Z,6.10
2022-11-05T00:32:32.759Z,6.10
2022-11-05T00:35:00.646Z,6.30
2022-11-05T00:37:29.161Z,5.40
2022-11-05T00:39:57.118Z,5.20
2022-11-05T00:42:42.677Z,5.10
2022-11-05T00:45:11.372Z,6.50
2022-11-05T00:47:59.842Z,5.10
2022-11-05T00:50:28.435Z,5.10
2022-11-05T00:52:59.349Z,5.10
2022-11-05T00:55:34.591Z,6.50
2022-11-05T00:58:04.145Z,6.50
2022-11-05T01:00:33.754Z,6.60
2022-11-05T01:03:04.993Z,5.10
2022-11-05T01:05:33.927Z,5.10
2022-11-05T01:08:02.699Z,5.10
2022-11-05T01:10:30.897Z,5.10
2022-11-05T01:12:59.072Z,6.30
2022-11-05T01:15:27.010Z,6.40
2022-11-05T01:17:54.929Z,6.90
2022-11-05T01:20:24.174Z,5.00
2022-11-05T01:22:52.031Z,5.00
2022-11-05T01:25:20.071Z,5.00
2022-11-05T01:27:47.922Z,5.50
2022-11-05T01:30:15.866Z,5.00
2022-11-05T01:32:43.809Z,5.00
2022-11-05T01:35:14.673Z,6.10
2022-11-05T01:37:44.014Z,4.90
2022-11-05T01:40:13.821Z,4.90
2022-11-05T01:42:42.014Z,5.70
2022-11-05T01:45:16.189Z,6.30
2022-11-05T01:47:57.850Z,4.70
2022-11-05T01:50:35.474Z,4.70
2022-11-05T01:53:21.483Z,4.60
2022-11-05T01:55:55.970Z,4.40
2022-11-05T01:58:29.816Z,4.30
2022-11-05T02:00:58.230Z,5.70
2022-11-05T02:03:26.975Z,4.20
2022-11-05T02:05:58.241Z,4.10
2022-11-05T02:08:50.023Z,4.90
2022-11-05T02:11:19.540Z,4.00
2022-11-05T02:13:48.332Z,3.90
2022-11-05T02:16:25.298Z,3.90
2022-11-05T02:19:01.207Z,3.80
2022-11-05T02:22:01.449Z,5.40
2022-11-05T02:24:57.102Z,3.70
2022-11-05T02:27:44.176Z,3.70
2022-11-05T02:30:41.666Z,3.60
2022-11-05T02:33:20.689Z,3.60
2022-11-05T02:36:16.028Z,3.50
2022-11-05T02:38:50.480Z,3.50
2022-11-05T02:41:25.828Z,3.40
2022-11-05T02:44:09.135Z,3.40
2022-11-05T02:46:48.772Z,4.50
2022-11-05T02:49:27.643Z,3.30
2022-11-05T02:51:59.109Z,3.30
2022-11-05T02:54:32.781Z,3.20
2022-11-05T02:57:02.888Z,3.90
2022-11-05T02:59:30.799Z,3.20
2022-11-05T03:02:01.775Z,3.20
2022-11-05T03:04:32.098Z,3.20
2022-11-05T03:07:23.579Z,4.70
2022-11-05T03:10:10.664Z,3.10
2022-11-05T03:12:47.777Z,3.10
2022-11-05T03:15:28.117Z,3.10
2022-11-05T03:18:03.489Z,3.10
2022-11-05T03:20:37.692Z,3.10
2022-11-05T03:23:11.709Z,2.10
2022-11-05T03:25:44.779Z,4.70
2022-11-05T03:28:15.651Z,3.10
2022-11-05T03:30:44.703Z,3.20
2022-11-05T03:33:18.028Z,4.40
2022-11-05T03:35:49.394Z,3.40
2022-11-05T03:38:22.793Z,3.30
2022-11-05T03:40:55.233Z,3.40
2022-11-05T03:43:26.008Z,3.40
2022-11-05T03:45:57.446Z,3.50
2022-11-05T03:48:29.558Z,3.60
2022-11-05T03:51:03.410Z,5.00
2022-11-05T03:53:34.323Z,3.70
2022-11-05T03:56:05.034Z,5.30
2022-11-05T03:58:33.141Z,3.70
2022-11-05T04:01:02.968Z,3.70
2022-11-05T04:03:36.130Z,3.70
2022-11-05T04:06:22.378Z,3.70
2022-11-05T04:09:07.776Z,3.70
2022-11-05T04:11:53.252Z,3.70
2022-11-05T04:14:21.297Z,3.70
2022-11-05T04:17:09.857Z,3.60
2022-11-05T04:19:58.147Z,3.80
2022-11-05T04:22:44.261Z,3.50
2022-11-05T04:25:12.592Z,3.40
2022-11-05T04:27:40.661Z,3.30
2022-11-05T04:30:21.608Z,3.20
2022-11-05T04:33:04.735Z,3.10
2022-11-05T04:35:36.039Z,3.70
2022-11-05T04:38:04.832Z,3.00
2022-11-05T04:40:33.019Z,3.00
2022-11-05T04:43:01.283Z,3.00
2022-11-05T04:45:30.859Z,2.90
2022-11-05T04:47:58.805Z,2.80
2022-11-05T04:50:27.103Z,2.80
2022-11-05T04:52:56.439Z,3.10
2022-11-05T04:55:24.639Z,2.80
2022-11-05T04:57:54.302Z,2.80
2022-11-05T05:00:24.142Z,2.90
2022-11-05T05:02:52.056Z,2.90
2022-11-05T05:05:21.206Z,2.90
2022-11-05T05:07:49.070Z,2.90
2022-11-05T05:10:18.466Z,2.90
2022-11-05T05:12:46.333Z,2.80
2022-11-05T05:15:14.241Z,4.40
2022-11-05T05:17:42.102Z,2.80
2022-11-05T05:20:27.561Z,2.80
2022-11-05T05:22:56.005Z,4.10
2022-11-05T05:25:25.385Z,2.90
2022-11-05T05:27:53.394Z,3.00
2022-11-05T05:30:21.287Z,4.20
2022-11-05T05:32:49.189Z,4.30
2022-11-05T05:35:17.665Z,3.10
2022-11-05T05:37:45.620Z,3.60
2022-11-05T05:40:13.481Z,3.50
2022-11-05T05:42:43.619Z,3.10
2022-11-05T05:45:12.563Z,3.20
2022-11-05T05:47:40.473Z,3.10
2022-11-05T05:50:08.724Z,3.10
2022-11-05T05:52:36.730Z,3.10
2022-11-05T05:55:04.789Z,3.10
2022-11-05T05:57:32.686Z,3.10
2022-11-05T06:00:02.004Z,3.10
2022-11-05T06:02:31.596Z,3.10
2022-11-05T06:04:59.560Z,3.00
2022-11-05T06:07:27.413Z,3.00
2022-11-05T06:09:55.277Z,3.10
2022-11-05T06:12:23.235Z,3.10
2022-11-05T06:14:51.126Z,3.20
2022-11-05T06:17:20.359Z,3.50
2022-11-05T06:19:48.417Z,4.60
2022-11-05T06:22:16.427Z,3.40
2022-11-05T06:24:44.310Z,3.30
2022-11-05T06:27:12.201Z,3.30
2022-11-05T06:29:40.045Z,4.50
2022-11-05T06:32:07.930Z,3.40
2022-11-05T06:34:37.789Z,3.70
2022-11-05T06:37:05.672Z,4.90
2022-11-05T06:39:33.558Z,3.50
2022-11-05T06:42:18.095Z,3.50
2022-11-05T06:44:46.535Z,3.60
2022-11-05T06:47:14.439Z,3.70
2022-11-05T06:49:43.722Z,3.70
2022-11-05T06:52:11.623Z,3.70
2022-11-05T06:54:39.496Z,5.40
2022-11-05T06:57:09.492Z,3.70
2022-11-05T06:59:37.517Z,4.80
2022-11-05T07:02:05.475Z,3.70
2022-11-05T07:04:33.390Z,3.80
2022-11-05T07:07:02.789Z,5.10
2022-11-05T07:09:30.699Z,3.80
2022-11-05T07:11:58.637Z,3.80
2022-11-05T07:14:26.565Z,3.80
2022-11-05T07:16:54.410Z,3.90
2022-11-05T07:19:22.400Z,3.90
2022-11-05T07:21:50.841Z,5.80
2022-11-05T07:24:20.077Z,4.00
2022-11-05T07:26:47.984Z,4.00
2022-11-05T07:29:15.904Z,4.10
2022-11-05T07:31:43.877Z,5.50
2022-11-05T07:34:11.806Z,4.30
2022-11-05T07:36:39.737Z,6.00
2022-11-05T07:39:07.701Z,4.60
2022-11-05T07:41:36.970Z,4.70
2022-11-05T07:44:04.919Z,6.30
2022-11-05T07:46:32.873Z,4.90
2022-11-05T07:49:00.763Z,6.10
2022-11-05T07:51:28.853Z,5.20
2022-11-05T07:53:56.773Z,6.90
2022-11-05T07:56:24.936Z,5.40
2022-11-05T07:58:54.335Z,6.10
2022-11-05T08:01:22.462Z,5.60
2022-11-05T08:03:50.464Z,5.60
2022-11-05T08:06:18.322Z,6.60
2022-11-05T08:08:46.205Z,7.40
2022-11-05T08:11:14.146Z,6.60
2022-11-05T08:13:42.748Z,6.70
2022-11-05T08:16:12.222Z,6.50
2022-11-05T08:18:40.367Z,8.10
2022-11-05T08:21:09.530Z,8.10
2022-11-05T08:23:39.006Z,8.10
2022-11-05T08:26:07.051Z,6.80
2022-11-05T08:28:34.975Z,7.50
2022-11-05T08:31:02.980Z,8.40
2022-11-05T08:33:33.118Z,8.60
2022-11-05T08:36:04.330Z,8.60
2022-11-05T08:38:32.306Z,6.80
2022-11-05T08:41:00.463Z,8.30
2022-11-05T08:43:28.459Z,6.90
2022-11-05T08:45:56.567Z,8.60
2022-11-05T08:48:24.590Z,6.80
2022-11-05T08:50:53.903Z,8.50
2022-11-05T08:53:21.903Z,6.80
2022-11-05T08:55:51.366Z,8.60
2022-11-05T08:58:20.755Z,6.90
2022-11-05T09:00:51.067Z,7.50
2022-11-05T09:03:19.680Z,7.00
2022-11-05T09:05:47.647Z,8.50
2022-11-05T09:08:18.633Z,9.30
2022-11-05T09:10:47.668Z,8.70
2022-11-05T09:13:19.435Z,7.60
2022-11-05T09:15:48.538Z,8.00
2022-11-05T09:18:17.548Z,7.90
2022-11-05T09:20:45.688Z,8.80
2022-11-05T09:23:15.595Z,8.40
2022-11-05T09:25:45.695Z,9.10
2022-11-05T09:28:17.243Z,8.20
2022-11-05T09:30:47.146Z,8.00
2022-11-05T09:33:15.917Z,9.00
2022-11-05T09:35:44.237Z,8.30
2022-11-05T09:38:12.470Z,10.30
2022-11-05T09:40:48.765Z,9.60
2022-11-05T09:43:20.097Z,9.40
2022-11-05T09:45:52.631Z,9.90
2022-11-05T09:48:24.675Z,8.70
2022-11-05T09:50:54.840Z,10.50
2022-11-05T09:53:25.060Z,10.10
2022-11-05T09:55:57.131Z,10.50
2022-11-05T09:58:35.296Z,8.80
2022-11-05T10:01:05.380Z,10.70
2022-11-05T10:03:37.323Z,8.90
2022-11-05T10:06:09.637Z,10.80
2022-11-05T10:08:42.671Z,9.10
2022-11-05T10:11:16.943Z,10.90
2022-11-05T10:13:48.153Z,11.00
2022-11-05T10:16:23.725Z,10.30
2022-11-05T10:18:56.153Z,10.60
2022-11-05T10:21:51.394Z,9.90
2022-11-05T10:24:16.737Z,10.70
2022-11-05T10:26:48.941Z,11.50
2022-11-05T10:29:23.517Z,11.50
2022-11-05T10:31:54.136Z,11.00
2022-11-05T10:34:24.893Z,10.60
2022-11-05T10:36:54.297Z,9.90
2022-11-05T10:39:23.433Z,11.30
2022-11-05T10:42:05.297Z,10.10
2022-11-05T10:44:38.512Z,10.30
2022-11-05T10:47:39.057Z,11.80
2022-11-05T10:50:12.414Z,10.30
2022-11-05T10:52:46.723Z,10.30
2022-11-05T10:55:20.442Z,10.90
2022-11-05T10:57:52.999Z,11.30
2022-11-05T11:00:28.918Z,10.30
2022-11-05T11:03:01.496Z,10.30
2022-11-05T11:05:32.588Z,11.30
2022-11-05T11:08:21.395Z,10.70
2022-11-05T11:10:51.923Z,10.50
2022-11-05T11:13:24.130Z,10.50
2022-11-05T11:15:52.875Z,10.70
2022-11-05T11:18:34.694Z,12.10
2022-11-05T11:21:13.689Z,10.70
2022-11-05T11:23:43.288Z,10.70
2022-11-05T11:26:12.634Z,11.80
2022-11-05T11:28:47.034Z,12.30
2022-11-05T11:31:17.330Z,10.90
2022-11-05T11:33:49.946Z,12.20
2022-11-05T11:36:20.650Z,11.00
2022-11-05T11:38:48.928Z,11.00
2022-11-05T11:41:26.063Z,11.00
2022-11-05T11:44:02.325Z,10.90
2022-11-05T11:46:33.924Z,11.20
2022-11-05T11:49:02.292Z,11.00
2022-11-05T11:51:34.190Z,11.90
2022-11-05T11:54:02.677Z,12.20
2022-11-05T11:56:32.459Z,11.90
2022-11-05T11:59:12.819Z,11.30
2022-11-05T12:02:20.308Z,12.30
2022-11-05T12:05:18.602Z,11.20
2022-11-05T12:07:52.782Z,11.30
2022-11-05T12:10:34.068Z,11.40
2022-11-05T12:13:20.398Z,12.10
2022-11-05T12:15:52.933Z,11.40
2022-11-05T12:18:30.106Z,11.50
2022-11-05T12:21:09.058Z,11.40
2022-11-05T12:24:01.074Z,11.50
2022-11-05T12:26:40.716Z,11.50
2022-11-05T12:29:35.403Z,13.40
2022-11-05T12:32:33.195Z,11.60
2022-11-05T12:35:10.603Z,11.60
2022-11-05T12:37:47.430Z,12.70
2022-11-05T12:40:47.922Z,11.70
2022-11-05T12:43:26.361Z,11.70
2022-11-05T12:46:03.420Z,11.50
2022-11-05T12:48:55.528Z,11.40
2022-11-05T12:51:38.157Z,11.40
2022-11-05T12:54:16.047Z,12.10
2022-11-05T12:56:47.963Z,11.50
2022-11-05T12:59:20.925Z,11.50
2022-11-05T13:01:53.962Z,11.70
2022-11-05T13:04:33.745Z,11.70
2022-11-05T13:07:06.598Z,13.20
2022-11-05T13:09:40.242Z,13.80
2022-11-05T13:12:13.172Z,12.10
2022-11-05T13:14:46.732Z,12.20
2022-11-05T13:17:17.988Z,12.30
2022-11-05T13:19:55.108Z,12.10
2022-11-05T13:22:30.919Z,12.10
2022-11-05T13:25:02.052Z,13.30
2022-11-05T13:27:49.764Z,13.80
2022-11-05T13:30:21.738Z,12.00
2022-11-05T13:32:56.037Z,12.00
2022-11-05T13:35:30.822Z,12.00
2022-11-05T13:38:21.948Z,13.20
2022-11-05T13:41:11.677Z,13.50
2022-11-05T13:43:56.886Z,11.50
2022-11-05T13:46:41.126Z,11.60
2022-11-05T13:49:53.240Z,11.30
2022-11-05T13:52:39.953Z,11.20
2022-11-05T13:55:37.946Z,11.10
2022-11-05T13:58:29.926Z,11.10
2022-11-05T14:01:08.126Z,12.90
2022-11-05T14:03:36.799Z,11.10
2022-11-05T14:06:07.693Z,12.00
2022-11-05T14:08:41.615Z,11.00
2022-11-05T14:11:21.646Z,12.50
2022-11-05T14:13:53.794Z,11.00
2022-11-05T14:16:23.635Z,11.80
2022-11-05T14:18:56.311Z,12.90
2022-11-05T14:21:49.694Z,11.00
2022-11-05T14:24:44.209Z,10.90
2022-11-05T14:27:34.441Z,10.90
2022-11-05T14:30:03.180Z,10.90
2022-11-05T14:32:48.589Z,10.90
2022-11-05T14:35:38.265Z,10.90
2022-11-05T14:38:18.519Z,10.80
2022-11-05T14:40:49.563Z,10.80
2022-11-05T14:43:23.382Z,12.10
2022-11-05T14:45:56.661Z,12.10
2022-11-05T14:48:32.161Z,10.70
2022-11-05T14:51:00.728Z,11.20
2022-11-05T14:53:35.051Z,10.60
2022-11-05T14:56:08.108Z,10.60
2022-11-05T14:58:38.078Z,10.50
2022-11-05T15:01:07.750Z,11.80
2022-11-05T15:03:47.190Z,11.40
2022-11-05T15:06:26.396Z,10.50
2022-11-05T15:09:33.651Z,10.40
2022-11-05T15:12:23.114Z,10.30
2022-11-05T15:14:57.561Z,10.70
2022-11-05T15:17:29.930Z,11.00
2022-11-05T15:20:02.691Z,10.90
2022-11-05T15:22:35.182Z,10.20
2022-11-05T15:25:05.098Z,11.70
2022-11-05T15:28:00.318Z,10.10
2022-11-05T15:30:28.236Z,10.10
2022-11-05T15:32:56.148Z,10.10
2022-11-05T15:35:27.488Z,10.90
2022-11-05T15:38:01.761Z,10.00
2022-11-05T15:40:32.798Z,9.90
2022-11-05T15:43:16.374Z,10.00
2022-11-05T15:45:44.508Z,11.20
2022-11-05T15:48:16.668Z,9.90
2022-11-05T15:50:44.666Z,9.80
2022-11-05T15:53:44.102Z,9.90
2022-11-05T15:56:13.678Z,9.70
2022-11-05T15:58:48.458Z,9.70
2022-11-05T16:01:24.644Z,9.60
2022-11-05T16:03:55.535Z,9.60
2022-11-05T16:06:26.135Z,9.50
2022-11-05T16:08:54.323Z,9.50
2022-11-05T16:11:23.669Z,9.40
2022-11-05T16:13:53.629Z,9.40
2022-11-05T16:16:34.286Z,9.50
2022-11-05T16:19:02.355Z,9.30
2022-11-05T16:21:30.251Z,9.30
2022-11-05T16:24:00.388Z,9.30
2022-11-05T16:27:01.236Z,10.50
2022-11-05T16:29:29.565Z,10.40
2022-11-05T16:31:59.201Z,9.20
2022-11-05T16:34:29.289Z,9.60
2022-11-05T16:36:58.861Z,9.10
2022-11-05T16:39:27.528Z,9.10
2022-11-05T16:41:55.444Z,9.00
2022-11-05T16:44:24.789Z,9.00
2022-11-05T16:46:53.465Z,9.00
2022-11-05T16:49:21.925Z,8.90
2022-11-05T16:51:50.238Z,9.00
2022-11-05T16:54:18.180Z,8.80
2022-11-05T16:56:48.855Z,8.80
2022-11-05T16:59:17.859Z,9.70
2022-11-05T17:01:50.429Z,8.80
2022-11-05T17:04:22.482Z,8.80
2022-11-05T17:06:50.384Z,10.00
2022-11-05T17:09:18.325Z,10.10
2022-11-05T17:11:46.327Z,9.40
2022-11-05T17:14:15.077Z,10.20
2022-11-05T17:16:42.987Z,8.80
2022-11-05T17:19:16.335Z,8.80
2022-11-05T17:21:44.417Z,10.00
2022-11-05T17:24:12.435Z,10.20
2022-11-05T17:26:40.479Z,9.60
2022-11-05T17:29:08.446Z,8.80
2022-11-05T17:31:36.807Z,9.80
2022-11-05T17:34:04.843Z,9.50
2022-11-05T17:36:34.086Z,9.10
2022-11-05T17:39:03.167Z,9.10
2022-11-05T17:41:31.083Z,8.80
2022-11-05T17:44:00.229Z,9.90
2022-11-05T17:46:28.358Z,8.80
2022-11-05T17:48:56.645Z,9.10
2022-11-05T17:51:24.706Z,8.70
2022-11-05T17:53:53.975Z,10.30
2022-11-05T17:56:33.498Z,8.70
2022-11-05T17:59:02.980Z,8.70
2022-11-05T18:01:33.925Z,8.70
2022-11-05T18:04:08.351Z,8.70
2022-11-05T18:06:37.433Z,8.70
2022-11-05T18:09:07.575Z,8.70
2022-11-05T18:11:36.225Z,9.70
2022-11-05T18:14:04.856Z,8.70
2022-11-05T18:16:33.197Z,8.70
2022-11-05T18:19:01.370Z,8.70
2022-11-05T18:21:29.569Z,8.70
2022-11-05T18:23:57.462Z,8.70
2022-11-05T18:26:26.712Z,8.70
2022-11-05T18:28:54.636Z,9.40
2022-11-05T18:31:23.668Z,8.90
2022-11-05T18:33:52.287Z,8.60
2022-11-05T18:36:21.721Z,8.90
2022-11-05T18:38:50.349Z,8.60
2022-11-05T18:41:19.089Z,9.40
2022-11-05T18:43:48.879Z,8.60
2022-11-05T18:46:43.235Z,8.60
2022-11-05T18:49:05.622Z,8.60
2022-11-05T18:51:33.606Z,9.90
2022-11-05T18:54:02.049Z,8.60
2022-11-05T18:56:30.121Z,8.60
2022-11-05T18:59:30.067Z,8.70
2022-11-05T19:01:47.938Z,8.70
2022-11-05T19:04:15.927Z,8.70
2022-11-05T19:06:43.917Z,10.10
2022-11-05T19:09:12.739Z,8.70
2022-11-05T19:11:41.841Z,9.70
2022-11-05T19:14:11.081Z,8.80
2022-11-05T19:16:39.286Z,8.80
2022-11-05T19:19:07.746Z,8.80
2022-11-05T19:21:35.633Z,8.70
2022-11-05T19:24:16.808Z,10.00
2022-11-05T19:26:46.719Z,9.50
2022-11-05T19:29:16.348Z,8.70
2022-11-05T19:31:45.360Z,8.70
2022-11-05T19:34:14.678Z,8.80
2022-11-05T19:36:43.412Z,9.40
2022-11-05T19:39:14.660Z,8.70
2022-11-05T19:41:43.043Z,8.70
2022-11-05T19:44:11.510Z,8.70
2022-11-05T19:46:41.520Z,8.70
2022-11-05T19:49:09.533Z,9.70
2022-11-05T19:51:37.909Z,8.70
2022-11-05T19:54:06.653Z,8.70
2022-11-05T19:56:35.993Z,8.70
2022-11-05T19:59:05.544Z,8.80
2022-11-05T20:01:33.988Z,8.80
2022-11-05T20:04:03.447Z,8.80
2022-11-05T20:06:34.229Z,9.10
2022-11-05T20:09:21.235Z,8.80
2022-11-05T20:11:51.057Z,8.80
2022-11-05T20:14:19.113Z,8.80
2022-11-05T20:16:47.679Z,8.80
2022-11-05T20:19:19.133Z,8.80
2022-11-05T20:21:47.441Z,8.80
2022-11-05T20:24:23.657Z,9.20
2022-11-05T20:26:53.293Z,10.00
2022-11-05T20:29:21.280Z,8.70
2022-11-05T20:31:50.229Z,8.70
2022-11-05T20:34:19.752Z,8.70
2022-11-05T20:36:47.965Z,10.20
2022-11-05T20:39:16.661Z,10.60
2022-11-05T20:41:44.764Z,9.10
2022-11-05T20:44:12.825Z,8.70
2022-11-05T20:46:40.759Z,8.70
2022-11-05T20:49:08.729Z,8.70
2022-11-05T20:51:38.004Z,9.90
2022-11-05T20:54:06.240Z,8.70
2022-11-05T20:56:35.804Z,8.70
2022-11-05T20:59:05.519Z,8.70
2022-11-05T21:01:35.318Z,8.70
2022-11-05T21:04:04.208Z,8.70
2022-11-05T21:06:32.896Z,8.70
2022-11-05T21:09:02.870Z,8.70
2022-11-05T21:11:50.857Z,8.70
2022-11-05T21:14:18.836Z,10.50
2022-11-05T21:16:49.403Z,9.50
2022-11-05T21:19:17.446Z,10.60
2022-11-05T21:21:45.548Z,10.20
2022-11-05T21:24:14.874Z,8.70
2022-11-05T21:26:50.069Z,8.70
2022-11-05T21:29:19.003Z,9.70
2022-11-05T21:31:51.840Z,8.60
2022-11-05T21:34:20.255Z,8.70
2022-11-05T21:36:48.734Z,8.60
2022-11-05T21:39:18.404Z,8.50
2022-11-05T21:41:46.375Z,8.80
2022-11-05T21:44:14.711Z,10.30
2022-11-05T21:46:42.810Z,9.50
2022-11-05T21:49:10.778Z,8.40
2022-11-05T21:51:56.420Z,9.10
2022-11-05T21:54:42.974Z,8.40
2022-11-05T21:57:32.919Z,9.90
2022-11-05T22:00:01.990Z,8.50
2022-11-05T22:02:31.761Z,8.50
2022-11-05T22:05:00.232Z,10.20
2022-11-05T22:07:30.648Z,9.60
2022-11-05T22:10:00.499Z,8.50
2022-11-05T22:12:29.240Z,8.60
2022-11-05T22:14:57.194Z,8.60
2022-11-05T22:17:25.511Z,8.60
2022-11-05T22:19:53.509Z,8.70
2022-11-05T22:22:21.889Z,8.70
2022-11-05T22:24:49.777Z,8.70
2022-11-05T22:27:22.264Z,8.70
2022-11-05T22:29:50.288Z,8.70
2022-11-05T22:32:18.504Z,8.70
2022-11-05T22:34:46.419Z,8.80
2022-11-05T22:37:14.345Z,8.80
2022-11-05T22:39:42.236Z,8.80
2022-11-05T22:42:10.231Z,8.80
2022-11-05T22:44:39.545Z,8.80
2022-11-05T22:47:07.731Z,8.80
2022-11-05T22:49:35.883Z,8.70
2022-11-05T22:52:03.937Z,8.70
2022-11-05T22:54:37.873Z,8.70
2022-11-05T22:57:07.147Z,8.70
2022-11-05T22:59:35.029Z,8.60
2022-11-05T23:02:09.484Z,8.60
2022-11-05T23:04:38.089Z,8.60
2022-11-05T23:07:27.591Z,8.60
2022-11-05T23:10:13.550Z,8.60
2022-11-05T23:12:43.058Z,8.60
2022-11-05T23:15:32.245Z,9.30
2022-11-05T23:18:19.187Z,8.60
2022-11-05T23:21:04.652Z,8.60
2022-11-05T23:23:50.039Z,8.70
2022-11-05T23:26:35.592Z,8.70
2022-11-05T23:29:04.225Z,8.70
2022-11-05T23:31:49.409Z,8.70
2022-11-05T23:34:18.673Z,8.70
2022-11-05T23:37:04.036Z,8.70
2022-11-05T23:39:31.952Z,8.70
2022-11-05T23:42:17.406Z,8.70
2022-11-05T23:45:02.949Z,8.70
2022-11-05T23:47:48.573Z,8.70
2022-11-05T23:50:18.043Z,8.80
2022-11-05T23:52:45.946Z,8.80
2022-11-05T23:55:13.872Z,8.80
2022-11-05T23:57:41.830Z,8.70
